createdAt,value
2019-06-07T00:00:40.142Z,14.57
2019-06-07T00:03:44.175Z,12.80
2019-06-07T00:06:51.654Z,13.17
2019-06-07T00:09:59.163Z,14.30
2019-06-07T00:13:06.919Z,12.57
2019-06-07T00:16:19.118Z,15.53
2019-06-07T00:19:23.658Z,12.93
2019-06-07T00:22:33.423Z,13.70
2019-06-07T00:25:40.196Z,16.40
2019-06-07T00:28:47.764Z,13.83
2019-06-07T00:31:55.241Z,14.57
2019-06-07T00:35:04.352Z,17.20
2019-06-07T00:38:11.941Z,17.17
2019-06-07T00:41:22.216Z,16.30
2019-06-07T00:44:28.693Z,18.57
2019-06-07T00:47:36.223Z,18.50
2019-06-07T00:50:43.782Z,21.03
2019-06-07T00:53:51.300Z,19.57
2019-06-07T00:56:58.721Z,19.80
2019-06-07T01:00:07.308Z,17.73
2019-06-07T01:03:15.043Z,20.03
2019-06-07T01:06:24.934Z,19.20
2019-06-07T01:09:33.601Z,19.53
2019-06-07T01:12:41.055Z,26.37
2019-06-07T01:15:49.736Z,21.80
2019-06-07T01:18:57.174Z,20.30
2019-06-07T01:22:04.763Z,20.03
2019-06-07T01:25:12.602Z,20.27
2019-06-07T01:28:23.617Z,24.07
2019-06-07T01:31:31.473Z,20.97
2019-06-07T01:34:38.779Z,17.30
2019-06-07T01:37:46.278Z,21.73
2019-06-07T01:40:53.788Z,21.00
2019-06-07T01:44:01.251Z,22.73
2019-06-07T01:47:08.772Z,19.57
2019-06-07T01:50:17.077Z,17.93
2019-06-07T01:53:26.478Z,18.87
2019-06-07T01:56:34.524Z,18.57
2019-06-07T01:59:41.975Z,19.07
2019-06-07T02:02:49.513Z,17.70
2019-06-07T02:05:58.016Z,17.03
2019-06-07T02:09:07.680Z,17.40
2019-06-07T02:12:25.834Z,16.77
2019-06-07T02:15:27.571Z,17.43
2019-06-07T02:18:35.017Z,18.90
2019-06-07T02:21:42.733Z,16.60
2019-06-07T02:25:33.885Z,17.63
2019-06-07T02:28:25.853Z,17.73
2019-06-07T02:31:08.429Z,17.30
2019-06-07T02:34:15.874Z,20.00
2019-06-07T02:37:24.869Z,14.67
2019-06-07T02:40:37.326Z,17.70
2019-06-07T02:43:41.556Z,16.30
2019-06-07T02:46:49.911Z,16.40
2019-06-07T02:49:57.683Z,17.03
2019-06-07T02:53:05.123Z,17.13
2019-06-07T02:56:48.963Z,18.30
2019-06-07T02:59:47.258Z,18.17
2019-06-07T03:02:38.398Z,19.63
2019-06-07T03:05:43.050Z,18.67
2019-06-07T03:08:50.539Z,20.27
2019-06-07T03:12:00.495Z,20.60
2019-06-07T03:15:08.606Z,21.10
2019-06-07T03:18:36.661Z,24.63
2019-06-07T03:21:45.912Z,22.60
2019-06-07T03:24:54.815Z,27.27
2019-06-07T03:28:02.315Z,28.60
2019-06-07T03:31:09.762Z,24.10
2019-06-07T03:34:17.238Z,25.77
2019-06-07T03:37:24.638Z,24.00
2019-06-07T03:40:34.222Z,24.73
2019-06-07T03:43:41.109Z,24.43
2019-06-07T03:46:48.685Z,25.47
2019-06-07T03:49:56.137Z,23.63
2019-06-07T03:53:03.657Z,25.33
2019-06-07T03:56:12.012Z,25.13
2019-06-07T03:59:20.316Z,27.27
2019-06-07T04:02:27.903Z,25.63
2019-06-07T04:05:40.281Z,26.93
2019-06-07T04:08:44.511Z,29.70
2019-06-07T04:11:51.985Z,32.40
2019-06-07T04:14:59.432Z,30.30
2019-06-07T04:18:06.885Z,36.10
2019-06-07T04:21:14.407Z,33.63
2019-06-07T04:24:21.888Z,40.33
2019-06-07T04:27:30.624Z,40.10
2019-06-07T04:30:43.195Z,42.40
2019-06-07T04:33:51.313Z,43.37
2019-06-07T04:36:59.796Z,42.17
2019-06-07T04:40:07.586Z,43.17
2019-06-07T04:43:15.251Z,43.50
2019-06-07T04:46:24.331Z,45.07
2019-06-07T04:49:38.136Z,49.33
2019-06-07T04:52:45.390Z,48.10
2019-06-07T04:55:52.399Z,44.10
2019-06-07T04:58:59.957Z,49.17
2019-06-07T05:02:07.609Z,50.20
2019-06-07T05:05:15.143Z,49.00
2019-06-07T05:08:27.914Z,55.57
2019-06-07T05:11:33.361Z,51.07
2019-06-07T05:14:44.094Z,55.00
2019-06-07T05:17:51.161Z,50.13
2019-06-07T05:20:59.208Z,50.17
2019-06-07T05:24:10.378Z,51.63
2019-06-07T05:27:16.355Z,49.90
2019-06-07T05:33:51.642Z,51.77
2019-06-07T05:37:11.574Z,51.80
2019-06-07T05:40:08.817Z,55.60
2019-06-07T05:43:24.903Z,54.10
2019-06-07T05:46:33.895Z,49.87
2019-06-07T05:49:44.530Z,56.53
2019-06-07T05:52:50.633Z,51.77
2019-06-07T05:55:58.109Z,47.67
2019-06-07T05:59:05.647Z,45.97
2019-06-07T06:02:22.317Z,45.37
2019-06-07T06:05:33.785Z,45.83
2019-06-07T06:08:31.522Z,42.97
2019-06-07T06:11:52.452Z,43.50
2019-06-07T06:14:49.241Z,39.23
2019-06-07T06:17:57.038Z,40.20
2019-06-07T06:21:17.435Z,37.90
2019-06-07T06:24:13.732Z,64.37
2019-06-07T06:28:02.527Z,40.10
2019-06-07T06:30:30.345Z,37.17
2019-06-07T06:33:42.928Z,36.03
2019-06-07T06:36:52.122Z,41.97
2019-06-07T06:39:59.614Z,39.10
2019-06-07T06:43:07.152Z,38.10
2019-06-07T06:46:31.857Z,37.43
2019-06-07T06:49:23.927Z,40.60
2019-06-07T06:52:31.471Z,43.37
2019-06-07T06:55:39.154Z,39.80
2019-06-07T06:59:33.536Z,42.17
2019-06-07T07:01:55.858Z,42.37
2019-06-07T07:05:03.461Z,41.70
2019-06-07T07:08:12.834Z,39.47
2019-06-07T07:11:23.313Z,42.67
2019-06-07T07:14:29.515Z,41.43
2019-06-07T07:17:50.789Z,43.00
2019-06-07T07:20:48.243Z,40.77
2019-06-07T07:24:19.513Z,44.80
2019-06-07T07:27:04.333Z,43.03
2019-06-07T07:33:21.583Z,38.93
2019-06-07T07:36:39.551Z,38.83
2019-06-07T07:39:38.073Z,35.93
2019-06-07T07:42:47.620Z,34.90
2019-06-07T07:46:01.419Z,33.77
2019-06-07T07:49:03.997Z,28.20
2019-06-07T07:52:11.595Z,33.57
2019-06-07T07:55:19.095Z,33.97
2019-06-07T07:58:26.645Z,34.07
2019-06-07T08:01:34.096Z,30.87
2019-06-07T08:05:13.865Z,27.17
2019-06-07T08:07:55.435Z,28.67
2019-06-07T08:11:02.165Z,26.00
2019-06-07T08:14:08.915Z,25.27
2019-06-07T08:17:16.381Z,26.03
2019-06-07T08:20:23.935Z,25.93
2019-06-07T08:23:31.389Z,26.03
2019-06-07T08:26:38.861Z,26.03
2019-06-07T08:30:03.780Z,21.27
2019-06-07T08:33:23.881Z,24.67
2019-06-07T08:36:20.036Z,27.23
2019-06-07T08:39:17.188Z,24.80
2019-06-07T08:42:36.592Z,24.67
2019-06-07T08:45:33.946Z,25.47
2019-06-07T08:48:41.453Z,23.43
2019-06-07T08:51:52.559Z,24.47
2019-06-07T08:55:03.396Z,27.90
2019-06-07T08:58:08.713Z,27.80
2019-06-07T09:01:16.599Z,27.37
2019-06-07T09:04:24.067Z,29.00
2019-06-07T09:07:31.529Z,29.73
2019-06-07T09:10:39.004Z,28.03
2019-06-07T09:13:46.971Z,29.70
2019-06-07T09:17:00.428Z,30.50
2019-06-07T09:20:10.412Z,29.13
2019-06-07T09:23:17.112Z,28.60
2019-06-07T09:26:22.149Z,28.70
2019-06-07T09:29:29.954Z,28.40
2019-06-07T09:32:37.485Z,27.70
2019-06-07T09:35:45.286Z,27.97
2019-06-07T09:38:53.193Z,26.67
2019-06-07T09:42:01.639Z,26.30
2019-06-07T09:45:14.108Z,26.80
2019-06-07T09:49:08.600Z,22.87
2019-06-07T09:51:30.268Z,22.43
2019-06-07T09:57:46.857Z,22.80
2019-06-07T10:00:54.486Z,24.47
2019-06-07T10:04:04.697Z,23.60
2019-06-07T10:07:28.862Z,22.10
2019-06-07T10:13:29.874Z,21.50
2019-06-07T10:16:46.537Z,20.23
2019-06-07T10:19:46.409Z,22.53
2019-06-07T10:22:54.901Z,21.50
2019-06-07T10:26:04.055Z,20.97
2019-06-07T10:29:11.615Z,21.83
2019-06-07T10:32:20.114Z,19.43
2019-06-07T10:35:29.189Z,19.63
2019-06-07T10:38:36.709Z,19.00
2019-06-07T10:41:44.242Z,15.07
2019-06-07T10:44:51.764Z,16.10
2019-06-07T10:47:59.307Z,17.60
2019-06-07T10:51:08.586Z,15.87
2019-06-07T10:54:26.741Z,12.37
2019-06-07T10:57:25.398Z,14.20
2019-06-07T11:00:33.066Z,13.40
2019-06-07T11:03:40.643Z,14.10
2019-06-07T11:06:48.091Z,13.37
2019-06-07T11:10:06.289Z,13.67
2019-06-07T11:13:04.689Z,11.70
2019-06-07T11:16:13.052Z,11.77
2019-06-07T11:19:20.662Z,11.00
2019-06-07T11:22:28.237Z,8.47
2019-06-07T11:25:35.726Z,8.10
2019-06-07T11:28:43.313Z,8.43
2019-06-07T11:31:50.808Z,8.07
2019-06-07T11:34:58.418Z,11.60
2019-06-07T11:38:06.356Z,9.53
2019-06-07T11:41:13.839Z,9.37
2019-06-07T11:44:21.313Z,10.47
2019-06-07T11:47:28.830Z,9.17
2019-06-07T11:50:36.283Z,9.43
2019-06-07T11:53:43.886Z,10.13
2019-06-07T11:56:51.333Z,9.33
2019-06-07T11:59:58.818Z,9.27
2019-06-07T12:03:09.360Z,10.30
2019-06-07T12:06:18.009Z,9.60
2019-06-07T12:09:28.137Z,11.03
2019-06-07T12:12:35.852Z,9.87
2019-06-07T12:15:43.437Z,11.27
2019-06-07T12:18:50.975Z,10.90
2019-06-07T12:21:58.433Z,12.10
2019-06-07T12:25:06.200Z,12.40
2019-06-07T12:28:14.805Z,11.57
2019-06-07T12:31:23.331Z,13.90
2019-06-07T12:34:30.827Z,14.07
2019-06-07T12:37:44.455Z,14.57
2019-06-07T12:40:57.330Z,13.40
2019-06-07T12:43:59.160Z,13.80
2019-06-07T12:47:06.099Z,14.17
2019-06-07T12:50:15.272Z,13.07
2019-06-07T12:53:26.630Z,14.77
2019-06-07T12:56:32.155Z,15.63
2019-06-07T12:59:40.199Z,14.13
2019-06-07T13:02:47.875Z,13.37
2019-06-07T13:05:55.315Z,14.67
2019-06-07T13:09:03.282Z,13.97
2019-06-07T13:12:11.521Z,14.47
2019-06-07T13:15:21.607Z,14.67
2019-06-07T13:18:28.630Z,14.53
2019-06-07T13:21:39.180Z,14.50
2019-06-07T13:24:46.750Z,17.77
2019-06-07T13:27:54.296Z,17.27
2019-06-07T13:31:01.810Z,14.37
2019-06-07T13:34:09.458Z,13.50
2019-06-07T13:37:17.052Z,13.77
2019-06-07T13:40:25.233Z,12.57
2019-06-07T13:43:32.905Z,12.00
2019-06-07T13:46:40.448Z,12.20
2019-06-07T13:49:47.991Z,12.03
2019-06-07T13:52:55.583Z,13.87
2019-06-07T13:56:03.092Z,12.50
2019-06-07T13:59:10.520Z,11.63
2019-06-07T14:02:18.596Z,13.30
2019-06-07T14:05:27.300Z,12.93
2019-06-07T14:08:34.913Z,10.97
2019-06-07T14:11:50.487Z,12.27
2019-06-07T14:14:51.570Z,10.97
2019-06-07T14:17:59.111Z,13.00
2019-06-07T14:21:06.642Z,12.47
2019-06-07T14:24:14.187Z,13.10
2019-06-07T14:27:21.645Z,13.50
2019-06-07T14:30:30.622Z,12.20
2019-06-07T14:33:38.433Z,17.93
2019-06-07T14:36:45.909Z,11.93
2019-06-07T14:39:53.382Z,12.00
2019-06-07T14:43:00.892Z,12.03
2019-06-07T14:46:08.482Z,13.43
2019-06-07T14:49:16.017Z,10.93
2019-06-07T14:52:24.405Z,11.03
2019-06-07T14:55:32.979Z,11.17
2019-06-07T14:58:43.486Z,11.27
2019-06-07T15:01:49.888Z,10.50
2019-06-07T15:04:58.130Z,10.03
2019-06-07T15:08:06.049Z,9.17
2019-06-07T15:11:13.673Z,10.10
2019-06-07T15:14:21.359Z,11.07
2019-06-07T15:17:28.996Z,9.97
2019-06-07T15:20:38.164Z,10.33
2019-06-07T15:23:46.225Z,10.27
2019-06-07T15:26:53.947Z,10.47
2019-06-07T15:30:09.443Z,8.67
2019-06-07T15:33:10.731Z,9.63
2019-06-07T15:36:18.193Z,9.50
2019-06-07T15:39:26.010Z,10.10
2019-06-07T15:42:53.105Z,12.57
2019-06-07T15:46:05.543Z,11.50
2019-06-07T15:49:13.648Z,10.87
2019-06-07T15:52:21.223Z,14.70
2019-06-07T15:55:28.894Z,11.17
2019-06-07T15:58:37.215Z,10.57
2019-06-07T16:01:44.915Z,10.20
2019-06-07T16:04:52.527Z,8.77
2019-06-07T16:08:00.438Z,10.20
2019-06-07T16:11:07.946Z,9.93
2019-06-07T16:14:15.730Z,8.60
2019-06-07T16:17:23.415Z,11.10
2019-06-07T16:20:31.140Z,10.40
2019-06-07T16:23:39.742Z,9.70
2019-06-07T16:26:48.446Z,10.40
2019-06-07T16:29:56.100Z,8.87
2019-06-07T16:33:03.662Z,11.40
2019-06-07T16:36:11.240Z,8.93
2019-06-07T16:39:18.926Z,9.20
2019-06-07T16:42:26.374Z,8.90
2019-06-07T16:45:34.118Z,7.93
2019-06-07T16:48:42.812Z,12.53
2019-06-07T16:51:50.781Z,8.90
2019-06-07T16:54:58.570Z,8.00
2019-06-07T16:58:06.120Z,10.63
2019-06-07T17:01:13.597Z,10.23
2019-06-07T17:04:21.309Z,8.67
2019-06-07T17:07:29.358Z,10.30
2019-06-07T17:10:38.115Z,9.10
2019-06-07T17:13:46.463Z,9.83
2019-06-07T17:16:54.393Z,10.40
2019-06-07T17:20:02.366Z,10.20
2019-06-07T17:23:09.785Z,14.27
2019-06-07T17:26:17.353Z,11.17
2019-06-07T17:29:25.201Z,9.73
2019-06-07T17:32:47.657Z,10.27
2019-06-07T17:35:44.525Z,10.40
2019-06-07T17:38:52.032Z,9.67
2019-06-07T17:42:02.035Z,11.30
2019-06-07T17:45:10.196Z,12.00
2019-06-07T17:48:17.801Z,10.50
2019-06-07T17:51:25.967Z,10.23
2019-06-07T17:54:33.583Z,10.67
2019-06-07T17:57:42.259Z,13.10
2019-06-07T18:00:51.334Z,10.70
2019-06-07T18:03:58.785Z,14.40
2019-06-07T18:07:06.866Z,10.83
2019-06-07T18:10:15.810Z,15.20
2019-06-07T18:13:23.272Z,11.10
2019-06-07T18:16:31.164Z,15.70
2019-06-07T18:19:38.788Z,16.53
2019-06-07T18:22:47.029Z,15.40
2019-06-07T18:25:54.854Z,15.80
2019-06-07T18:29:02.534Z,17.63
2019-06-07T18:32:13.378Z,17.13
2019-06-07T18:35:19.062Z,19.03
2019-06-07T18:38:26.528Z,16.20
2019-06-07T18:41:35.234Z,34.63
2019-06-07T18:44:42.817Z,26.90
2019-06-07T18:47:51.396Z,22.50
2019-06-07T18:50:59.501Z,22.50
2019-06-07T18:54:07.008Z,25.97
2019-06-07T18:57:17.577Z,28.43
2019-06-07T19:00:27.594Z,26.80
2019-06-07T19:03:35.200Z,16.83
2019-06-07T19:06:42.766Z,15.47
2019-06-07T19:09:50.573Z,14.93
2019-06-07T19:13:00.303Z,14.30
2019-06-07T19:16:07.219Z,18.63
2019-06-07T19:19:14.675Z,18.60
2019-06-07T19:22:22.213Z,20.87
2019-06-07T19:25:29.864Z,21.90
2019-06-07T19:28:37.460Z,21.17
2019-06-07T19:31:44.996Z,19.93
2019-06-07T19:34:53.207Z,19.63
2019-06-07T19:38:02.014Z,24.17
2019-06-07T19:41:19.422Z,34.23
2019-06-07T19:44:19.442Z,27.70
2019-06-07T19:47:28.665Z,25.67
2019-06-07T19:50:36.546Z,24.67
2019-06-07T19:53:44.156Z,25.73
2019-06-07T19:56:53.352Z,29.03
2019-06-07T20:00:02.685Z,21.70
2019-06-07T20:03:10.394Z,22.00
2019-06-07T20:06:17.972Z,28.83
2019-06-07T20:09:25.689Z,22.27
2019-06-07T20:12:33.540Z,27.60
2019-06-07T20:15:41.020Z,32.07
2019-06-07T20:18:49.195Z,29.70
2019-06-07T20:21:57.206Z,27.07
2019-06-07T20:25:05.042Z,26.57
2019-06-07T20:28:12.531Z,25.73
2019-06-07T20:31:20.025Z,26.83
2019-06-07T20:34:27.900Z,32.03
2019-06-07T20:37:36.180Z,27.13
2019-06-07T20:40:43.671Z,27.77
2019-06-07T20:43:51.206Z,25.17
2019-06-07T20:46:59.978Z,25.17
2019-06-07T20:50:09.106Z,24.27
2019-06-07T20:53:17.029Z,23.27
2019-06-07T20:56:24.980Z,23.43
2019-06-07T20:59:32.544Z,21.50
2019-06-07T21:02:40.316Z,22.27
2019-06-07T21:05:48.678Z,22.57
2019-06-07T21:08:56.095Z,25.30
2019-06-07T21:12:03.808Z,27.33
2019-06-07T21:15:14.294Z,28.20
2019-06-07T21:18:21.130Z,26.47
2019-06-07T21:21:28.805Z,26.30
2019-06-07T21:24:36.620Z,24.87
2019-06-07T21:27:44.308Z,23.13
2019-06-07T21:30:52.037Z,28.40
2019-06-07T21:33:59.784Z,25.47
2019-06-07T21:37:07.900Z,30.17
2019-06-07T21:40:15.460Z,25.83
2019-06-07T21:43:22.976Z,27.80
2019-06-07T21:46:30.501Z,26.57
2019-06-07T21:49:37.991Z,28.10
2019-06-07T21:52:45.414Z,33.73
2019-06-07T21:55:53.160Z,33.90
2019-06-07T21:59:00.608Z,30.97
2019-06-07T22:02:09.389Z,28.70
2019-06-07T22:05:17.455Z,29.47
2019-06-07T22:08:25.676Z,31.73
2019-06-07T22:11:33.838Z,26.37
2019-06-07T22:14:42.271Z,26.37
2019-06-07T22:17:49.957Z,27.33
2019-06-07T22:20:57.533Z,26.60
2019-06-07T22:24:06.717Z,24.67
2019-06-07T22:27:15.650Z,27.70
2019-06-07T22:30:25.192Z,26.97
2019-06-07T22:33:33.730Z,28.67
2019-06-07T22:36:41.713Z,30.40
2019-06-07T22:39:49.188Z,29.43
2019-06-07T22:42:56.880Z,28.70
2019-06-07T22:46:04.422Z,29.87
2019-06-07T22:49:13.233Z,31.07
2019-06-07T22:52:20.964Z,27.20
2019-06-07T22:55:28.814Z,28.30
2019-06-07T22:58:36.354Z,26.87
2019-06-07T23:01:43.925Z,28.07
2019-06-07T23:04:51.372Z,26.73
2019-06-07T23:07:58.924Z,29.73
2019-06-07T23:11:06.502Z,31.83
2019-06-07T23:14:15.306Z,36.60
2019-06-07T23:17:23.043Z,28.80
2019-06-07T23:20:30.934Z,35.40
2019-06-07T23:23:38.510Z,31.17
2019-06-07T23:26:46.180Z,28.90
2019-06-07T23:29:53.593Z,29.43
2019-06-07T23:33:01.067Z,27.90
2019-06-07T23:36:08.756Z,28.67
2019-06-07T23:39:17.228Z,27.90
2019-06-07T23:42:25.004Z,27.93
2019-06-07T23:45:32.571Z,29.33
2019-06-07T23:48:40.225Z,28.87
2019-06-07T23:51:47.765Z,31.87
2019-06-07T23:54:55.186Z,33.93
2019-06-07T23:58:02.774Z,32.30
